Terminal Aerodrome Forecast
Issued by NWS

Home | Current Version | Previous Version | Text Only | Print | Product List | Glossary On
Versions: 1 2 3 4 5 6 7 8 9 10 11 12 13 14
000
FTUS42 KTAE 011700
TAFDHN
TAF
KDHN 011734Z 0118/0218 09008KT 5SM BR OVC007
      TEMPO 0118/0120 2SM BR OVC002
     FM020600 10003KT 1/2SM FG OVC002
     FM021600 09003KT 5SM BR OVC007=

USA.gov is the U.S. government's official web portal to all federal, state and local government web resources and services.